Flight Track Log - Related Links

Times and Time Zones

All times are in EDT time to prevent confusion due to time zone crossing. See the AAR571 flight status page for this flight to view local times or setup timezone preferences in your user account.

Time Position Orientation Groundspeed Altitude Reporting Facility
EDT Latitude Longitude Course Direction KTS MPH feet Rate Location/Type
Mon 02:15:27 AM 48.5370 135.2030 42° Northeast 161 185 1,100  Level FlightAware ADS-B
Mon 02:15:47 AM 48.5510 135.2220 42° Northeast 158 182 2,300 2,280 Climbing FlightAware ADS-B
Mon 02:17:07 AM 48.6040 135.2890 40° Northeast 229 264 4,900 1,867 Climbing FlightAware ADS-B
Mon 02:17:17 AM 48.6090 135.2920 22° Northeast 237 273 5,100 3,000 Climbing FlightAware ADS-B
Mon 02:17:47 AM 48.6420 135.2830 350° North 247 284 6,900 3,467 Climbing FlightAware ADS-B
Mon 02:18:02 AM 48.6620 135.2750 345° North 254 292 7,700 2,850 Climbing FlightAware ADS-B
Mon 02:18:27 AM 48.6820 135.2580 331° Northwest 268 308 8,800 3,450 Climbing FlightAware ADS-B
Mon 02:18:42 AM 48.6950 135.2190 297° West 288 331 10,000 3,600 Climbing FlightAware ADS-B
Mon 02:18:57 AM 48.6970 135.1910 276° West 299 344 10,600 1,600 Climbing FlightAware ADS-B
Mon 02:19:42 AM 48.7040 135.0910 276° West 345 397 11,600 1,280 Climbing FlightAware ADS-B
Mon 02:20:12 AM 48.7080 135.0430 277° West 366 421 12,200 1,520 Climbing FlightAware ADS-B
Mon 02:20:57 AM 48.7160 134.9110 275° West 373 429 13,500 2,891 Climbing FlightAware ADS-B
Mon 02:22:02 AM 48.7290 134.7280 276° West 391 450 17,500 3,200 Climbing FlightAware ADS-B
Mon 02:22:42 AM 48.7370 134.6110 276° West 402 463 19,100 2,625 Climbing FlightAware ADS-B
Mon 02:23:22 AM 48.7450 134.4750 275° West 407 468 21,000 2,147 Climbing FlightAware ADS-B
Mon 02:24:17 AM 48.7540 134.3390 276° West 418 481 22,500 1,620 Climbing FlightAware ADS-B
Mon 02:25:02 AM 48.7610 134.2300 276° West 424 488 23,700 1,275 Climbing FlightAware ADS-B
Mon 02:25:37 AM 48.7680 134.1070 275° West 426 490 24,200 1,771 Climbing FlightAware ADS-B
Mon 02:26:47 AM 48.7810 133.8940 275° West 437 503 26,800 1,763 Climbing FlightAware ADS-B
Mon 02:28:17 AM 48.7970 133.6210 275° West 448 516 28,900 1,338 Climbing FlightAware ADS-B
Mon 02:28:57 AM 48.8040 133.4980 275° West 452 520 29,700 1,200 Climbing FlightAware ADS-B
Mon 02:29:42 AM 48.8110 133.3650 275° West 458 527 30,600 1,385 Climbing FlightAware ADS-B
Mon 02:31:07 AM 48.8250 133.0810 274° West 456 525 32,700 1,488 Climbing FlightAware ADS-B
Mon 02:31:47 AM 48.8160 132.9520 264° West 466 536 33,700 1,200 Climbing FlightAware ADS-B
Mon 02:32:57 AM 48.7470 132.7440 243° Southwest 488 562 34,900 991 Climbing FlightAware ADS-B
Mon 02:33:42 AM 48.6920 132.6320 233° Southwest 491 565 35,600 900 Climbing FlightAware ADS-B
Mon 02:34:17 AM 48.6530 132.5550 233° Southwest 481 554 36,100 375 Climbing FlightAware ADS-B
Mon 02:35:02 AM 48.6000 132.4490 233° Southwest 478 550 36,100  Level FlightAware ADS-B
Mon 02:35:47 AM 48.5330 132.3160 233° Southwest 482 555 36,100  Level FlightAware ADS-B
Mon 02:36:42 AM 48.4660 132.1850 232° Southwest 483 556 36,100  Level FlightAware ADS-B
Mon 02:37:37 AM 48.3760 132.0080 233° Southwest 486 559 36,100  Level FlightAware ADS-B
Mon 02:38:17 AM 48.3140 131.8870 232° Southwest 486 559 36,100  Level FlightAware ADS-B
Mon 02:38:57 AM 48.2600 131.7830 232° Southwest 487 560 36,100  Level FlightAware ADS-B
Mon 02:39:42 AM 48.2010 131.6700 232° Southwest 488 562 36,100  Level FlightAware ADS-B
Mon 02:40:27 AM 48.1120 131.5400 224° Southwest 494 568 36,100  Level FlightAware ADS-B
Mon 02:41:07 AM 48.0370 131.4620 215° Southwest 497 572 36,100  Level FlightAware ADS-B
Mon 02:41:47 AM 47.9640 131.3950 212° Southwest 496 571 36,100  Level FlightAware ADS-B
Mon 02:42:22 AM 47.8940 131.3310 212° Southwest 494 568 36,100  Level FlightAware ADS-B
Mon 02:43:07 AM 47.7960 131.2430 211° Southwest 495 570 36,100  Level FlightAware ADS-B
Mon 02:44:12 AM 47.6620 131.1250 211° Southwest 495 570 36,100  Level FlightAware ADS-B
Mon 02:44:52 AM 47.5780 131.0560 209° Southwest 493 567 36,100  Level FlightAware ADS-B
Mon 02:45:37 AM 47.4940 130.9880 209° Southwest 494 568 36,100  Level FlightAware ADS-B
Mon 02:46:32 AM 47.3780 130.8940 209° Southwest 494 568 36,100  Level FlightAware ADS-B
Mon 02:47:12 AM 47.2950 130.8270 209° Southwest 500 575 36,100  Level FlightAware ADS-B
Mon 02:48:07 AM 47.2040 130.7540 209° Southwest 498 573 36,100  Level FlightAware ADS-B
Mon 02:48:47 AM 47.1140 130.6820 209° Southwest 496 571 36,100  Level FlightAware ADS-B
Mon 02:49:22 AM 47.0380 130.6210 209° Southwest 498 573 36,100  Level FlightAware ADS-B
Mon 02:50:22 AM 46.9190 130.5200 210° Southwest 495 570 36,100  Level FlightAware ADS-B
Mon 02:51:12 AM 46.8360 130.3980 225° Southwest 485 558 36,100  Level FlightAware ADS-B
Mon 02:51:47 AM 46.7970 130.2970 241° Southwest 476 548 36,100  Level FlightAware ADS-B
Mon 02:52:32 AM 46.7650 130.1830 248° West 470 541 36,100  Level FlightAware ADS-B
Mon 02:53:12 AM 46.7320 130.0620 248° West 470 541 36,100  Level FlightAware ADS-B
Mon 02:53:57 AM 46.7000 129.9470 248° West 470 541 36,100  Level FlightAware ADS-B
Mon 02:54:37 AM 46.6730 129.8470 249° West 470 541 36,100  Level FlightAware ADS-B
Mon 02:55:17 AM 46.6450 129.7470 248° West 470 541 36,100  Level FlightAware ADS-B
Mon 02:55:57 AM 46.6170 129.6470 248° West 470 541 36,100  Level FlightAware ADS-B
Mon 02:56:47 AM 46.5820 129.5230 248° West 470 541 36,100  Level FlightAware ADS-B
Mon 02:57:27 AM 46.5550 129.4230 249° West 470 541 36,100  Level FlightAware ADS-B
Mon 02:58:07 AM 46.5270 129.3230 248° West 470 541 36,100  Level FlightAware ADS-B
Mon 02:58:47 AM 46.4990 129.2240 248° West 470 541 36,100  Level FlightAware ADS-B
Mon 02:59:27 AM 46.4720 129.1240 249° West 470 541 36,100  Level FlightAware ADS-B
Mon 03:00:17 AM 46.4370 129.0000 248° West 470 541 36,100  Level FlightAware ADS-B
Mon 03:00:57 AM 46.4090 128.9000 248° West 470 541 36,100  Level FlightAware ADS-B
Mon 03:01:37 AM 46.3820 128.8010 248° West 470 541 36,100  Level FlightAware ADS-B
Mon 03:02:17 AM 46.3540 128.7020 248° West 470 541 36,100  Level FlightAware ADS-B
Mon 03:02:57 AM 46.3260 128.6020 248° West 470 541 36,100 -290 Level FlightAware ADS-B
Mon 03:05:00 AM 46.1666 128.5573 191° South  Level Estimated
Mon 03:06:00 AM 46.0888 128.5356 191° South  Level Estimated
Mon 03:07:00 AM 46.0111 128.5140 191° South  Level Estimated
Mon 03:08:00 AM 45.9333 128.4924 191° South  Level Estimated
Mon 03:09:00 AM 45.8555 128.4709 191° South  Level Estimated
Mon 03:10:00 AM 45.7777 128.4495 191° South  Level Estimated
Mon 03:11:00 AM 45.7000 128.4281 191° South  Level Estimated
Mon 03:12:00 AM 45.6222 128.4068 191° South  Level Estimated
Mon 03:13:00 AM 45.5444 128.3855 191° South  Level Estimated
Mon 03:14:00 AM 45.4666 128.3643 191° South  Level Estimated
Mon 03:15:00 AM 45.3888 128.3431 191° South  Level Estimated
Mon 03:16:00 AM 45.3110 128.3221 191° South  Level Estimated
Mon 03:17:00 AM 45.2332 128.3010 191° South  Level Estimated
Mon 03:18:00 AM 45.1554 128.2800 191° South  Level Estimated
Mon 03:19:00 AM 45.0775 128.2591 191° South  Level Estimated
Mon 03:20:00 AM 44.9997 128.2383 191° South  Level Estimated
Mon 03:21:00 AM 44.9219 128.2174 191° South  Level Estimated
Mon 03:22:00 AM 44.8441 128.1967 191° South  Level Estimated
Mon 03:23:00 AM 44.7663 128.1760 191° South  Level Estimated
Mon 03:24:00 AM 44.6884 128.1553 191° South  Level Estimated
Mon 03:25:00 AM 44.6106 128.1348 191° South  Level Estimated
Mon 03:26:00 AM 44.5327 128.1142 191° South  Level Estimated
Mon 03:27:00 AM 44.4549 128.0938 191° South  Level Estimated
Mon 03:28:00 AM 44.3770 128.0733 191° South  Level Estimated
Mon 03:29:00 AM 44.2992 128.0530 191° South  Level Estimated
Mon 03:30:00 AM 44.2213 128.0327 191° South  Level Estimated
Mon 03:31:00 AM 44.1435 128.0124 191° South  Level Estimated
Mon 03:32:00 AM 44.0656 127.9922 191° South  Level Estimated
Mon 03:33:00 AM 43.9878 127.9721 191° South  Level Estimated
Mon 03:34:00 AM 43.9099 127.9520 191° South  Level Estimated
Mon 03:35:00 AM 43.8320 127.9319 191° South  Level Estimated
Mon 03:36:00 AM 43.7541 127.9119 191° South  Level Estimated
Mon 03:37:00 AM 43.6763 127.8920 190° South  Level Estimated
Mon 03:38:00 AM 43.5984 127.8721 190° South  Level Estimated
Mon 03:39:00 AM 43.5205 127.8522 190° South  Level Estimated
Mon 03:40:00 AM 43.4426 127.8325 190° South  Level Estimated
Mon 03:41:00 AM 43.3647 127.8127 190° South  Level Estimated
Mon 03:42:00 AM 43.2868 127.7930 190° South  Level Estimated
Mon 03:43:00 AM 43.2089 127.7734 190° South  Level Estimated
Mon 03:44:00 AM 43.1310 127.7538 190° South  Level Estimated
Mon 03:45:00 AM 43.0531 127.7343 190° South  Level Estimated
Mon 03:46:00 AM 42.9752 127.7148 190° South  Level Estimated
Mon 03:47:00 AM 42.8973 127.6953 190° South  Level Estimated
Mon 03:48:00 AM 42.8194 127.6759 190° South  Level Estimated
Mon 03:49:00 AM 42.7414 127.6566 190° South  Level Estimated
Mon 03:50:00 AM 42.6635 127.6373 190° South  Level Estimated
Mon 03:51:00 AM 42.5856 127.6181 190° South  Level Estimated
Mon 03:52:00 AM 42.5076 127.5989 190° South  Level Estimated
Mon 03:53:00 AM 42.4297 127.5797 190° South  Level Estimated
Mon 03:54:00 AM 42.3518 127.5606 190° South  Level Estimated
Mon 03:55:00 AM 42.2738 127.5416 190° South  Level Estimated
Mon 03:56:00 AM 42.1959 127.5226 190° South  Level Estimated
Mon 03:57:00 AM 42.1180 127.5036 190° South  Level Estimated
Mon 03:58:00 AM 42.0400 127.4847 190° South  Level Estimated
Mon 03:59:00 AM 41.9621 127.4659 190° South  Level Estimated
Mon 04:00:00 AM 41.8841 127.4470 190° South  Level Estimated
Mon 04:01:00 AM 41.8061 127.4283 190° South  Level Estimated
Mon 04:02:00 AM 41.7282 127.4095 190° South  Level Estimated
Mon 04:03:00 AM 41.6502 127.3908 190° South  Level Estimated
Mon 04:04:00 AM 41.5722 127.3722 190° South  Level Estimated
Mon 04:05:00 AM 41.4943 127.3536 190° South  Level Estimated
Mon 04:06:00 AM 41.4163 127.3351 190° South  Level Estimated
Mon 04:07:00 AM 41.3383 127.3166 190° South  Level Estimated
Mon 04:08:00 AM 41.2603 127.2981 190° South  Level Estimated
Mon 04:09:00 AM 41.1824 127.2797 190° South  Level Estimated
Mon 04:10:00 AM 41.1044 127.2613 190° South  Level Estimated
Mon 04:11:00 AM 41.0264 127.2430 190° South  Level Estimated
Mon 04:12:00 AM 40.9484 127.2247 190° South  Level Estimated
Mon 04:13:00 AM 40.8704 127.2065 190° South  Level Estimated
Mon 04:14:00 AM 40.7924 127.1883 190° South  Level Estimated
Mon 04:15:00 AM 40.7144 127.1701 190° South  Level Estimated
Mon 04:16:00 AM 40.6364 127.1520 190° South  Level Estimated
Mon 04:17:00 AM 40.5584 127.1339 190° South  Level Estimated
Mon 04:18:00 AM 40.4804 127.1159 190° South  Level Estimated
Mon 04:19:00 AM 40.4024 127.0979 190° South  Level Estimated
Mon 04:20:00 AM 40.3244 127.0800 190° South  Level Estimated
Mon 04:21:00 AM 40.2463 127.0621 190° South  Level Estimated
Mon 04:22:00 AM 40.1683 127.0442 190° South  Level Estimated
Mon 04:23:00 AM 40.0903 127.0264 190° South  Level Estimated
Mon 04:24:00 AM 40.0123 127.0086 190° South  Level Estimated
Mon 04:25:00 AM 39.9342 126.9909 190° South  Level Estimated
Mon 04:26:00 AM 39.8562 126.9732 190° South  Level Estimated
Mon 04:27:00 AM 39.7782 126.9555 190° South  Level Estimated
Mon 04:28:00 AM 39.7001 126.9379 190° South  Level Estimated
Mon 04:29:00 AM 39.6221 126.9203 190° South  Level Estimated
Mon 04:30:00 AM 39.5441 126.9028 190° South  Level Estimated
Mon 04:31:00 AM 39.4660 126.8853 190° South  Level Estimated
Mon 04:32:00 AM 39.3880 126.8678 190° South  Level Estimated
Mon 04:33:00 AM 39.3099 126.8504 190° South  Level Estimated
Mon 04:34:00 AM 39.2319 126.8330 190° South  Level Estimated
Mon 04:35:00 AM 39.1538 126.8157 190° South  Level Estimated
Mon 04:36:00 AM 39.0758 126.7984 190° South  Level Estimated
Mon 04:37:00 AM 38.9977 126.7811 190° South  Level Estimated
Mon 04:38:00 AM 38.9197 126.7639 190° South  Level Estimated
Mon 04:39:00 AM 38.8416 126.7467 190° South  Level Estimated
Mon 04:40:00 AM 38.7635 126.7295 190° South  Level Estimated
Mon 04:41:00 AM 38.6855 126.7124 190° South  Level Estimated
Mon 04:42:00 AM 38.6074 126.6953 190° South  Level Estimated
Mon 04:43:00 AM 38.5293 126.6783 190° South  Level Estimated
Mon 04:44:00 AM 38.4512 126.6613 190° South  Level Estimated
Mon 04:45:00 AM 38.3731 126.6443 190° South  Level Estimated
Mon 04:46:00 AM 38.2951 126.6274 190° South  Level Estimated
Mon 04:47:00 AM 38.2170 126.6105 190° South  Level Estimated
Mon 04:47:12 AM 37.1730 126.4350 190° South 290 334 5,700  Level FlightAware ADS-B
Mon 04:48:00 AM 38.1389 126.5937 190° South  Level Estimated
Mon 04:49:00 AM 38.0608 126.5768 190° South  Level Estimated
Mon 04:50:00 AM 37.9827 126.5600 190° South  Level Estimated
Mon 04:50:32 AM 37.2620 126.5870 54° Northeast 3,300  Level FlightAware ADS-B
Mon 04:53:00 AM 37.4351 126.4730 332° Northwest  Level Estimated
Mon 04:54:00 AM 37.4691 126.4505 332° Northwest  Level Estimated
Mon 04:55:00 AM 37.4691 126.4505 335° Northwest  Level Estimated
Mon 04:56:00 AM 37.4691 126.4505 335° Northwest  Level Estimated
Mon 04:57:00 AM 37.4691 126.4505 335° Northwest  Level Estimated
Mon 04:58:00 AM 37.4691 126.4505 335° Northwest  Level Estimated
Mon 04:59:00 AM 37.4691 126.4505 335° Northwest  Level Estimated
Mon 05:00:00 AM 37.4691 126.4505 335° Northwest  Level Estimated
Mon 05:01:00 AM 37.4691 126.4505 335° Northwest  Level Estimated
Mon 05:02:00 AM 37.4691 126.4505 335° Northwest  Level Estimated
Mon 05:03:00 AM 37.4691 126.4505 335° Northwest  Level Estimated
Mon 05:04:00 AM 37.4691 126.4505 335° Northwest  Level Estimated
Mon 05:05:00 AM 37.4691 126.4505 335° Northwest  Level Estimated
Mon 05:06:00 AM 37.4691 126.4505 335° Northwest  Level Estimated
Mon 05:07:00 AM 37.4691 126.4505 335° Northwest  Level Estimated

Login

Don't have an account? Register now (free) for customized features, flight alerts, and more!